sensor_id;sensor_type;location;lat;lon;timestamp;P1;durP1;ratioP1;P2;durP2;ratioP2
62931;SDS011;49037;41.898;25.004;2023-06-04T00:01:26;9.55;;;6.13;;
62931;SDS011;49037;41.898;25.004;2023-06-04T00:06:58;9.48;;;6.97;;
62931;SDS011;49037;41.898;25.004;2023-06-04T00:09:24;7.38;;;5.63;;
62931;SDS011;49037;41.898;25.004;2023-06-04T00:41:24;8.98;;;6.47;;
62931;SDS011;49037;41.898;25.004;2023-06-04T00:46:39;8.63;;;6.22;;
62931;SDS011;49037;41.898;25.004;2023-06-04T01:04:14;10.75;;;7.13;;
62931;SDS011;49037;41.898;25.004;2023-06-04T01:06:48;9.85;;;6.70;;
62931;SDS011;49037;41.898;25.004;2023-06-04T01:09:20;10.55;;;6.72;;
62931;SDS011;49037;41.898;25.004;2023-06-04T01:11:46;8.55;;;6.13;;
62931;SDS011;49037;41.898;25.004;2023-06-04T01:14:14;8.93;;;6.40;;
62931;SDS011;49037;41.898;25.004;2023-06-04T01:16:52;8.90;;;6.57;;
62931;SDS011;49037;41.898;25.004;2023-06-04T01:33:08;7.57;;;6.03;;
62931;SDS011;49037;41.898;25.004;2023-06-04T01:35:37;7.93;;;6.20;;
62931;SDS011;49037;41.898;25.004;2023-06-04T01:38:06;8.18;;;6.63;;
62931;SDS011;49037;41.898;25.004;2023-06-04T01:40:32;12.00;;;6.60;;
62931;SDS011;49037;41.898;25.004;2023-06-04T01:42:58;8.50;;;6.63;;
62931;SDS011;49037;41.898;25.004;2023-06-04T01:45:26;8.80;;;6.30;;
62931;SDS011;49037;41.898;25.004;2023-06-04T01:47:53;10.95;;;7.15;;
62931;SDS011;49037;41.898;25.004;2023-06-04T01:50:19;9.05;;;6.95;;
62931;SDS011;49037;41.898;25.004;2023-06-04T01:52:45;9.75;;;6.32;;
62931;SDS011;49037;41.898;25.004;2023-06-04T01:55:14;9.20;;;6.45;;
62931;SDS011;49037;41.898;25.004;2023-06-04T01:57:40;8.25;;;6.70;;
62931;SDS011;49037;41.898;25.004;2023-06-04T02:00:10;8.60;;;6.47;;
62931;SDS011;49037;41.898;25.004;2023-06-04T02:02:36;9.15;;;6.82;;
62931;SDS011;49037;41.898;25.004;2023-06-04T02:05:06;8.68;;;6.07;;
62931;SDS011;49037;41.898;25.004;2023-06-04T02:07:33;8.90;;;6.25;;
62931;SDS011;49037;41.898;25.004;2023-06-04T02:10:08;10.32;;;6.93;;
62931;SDS011;49037;41.898;25.004;2023-06-04T02:12:36;11.73;;;7.00;;
62931;SDS011;49037;41.898;25.004;2023-06-04T02:15:02;10.73;;;6.75;;
62931;SDS011;49037;41.898;25.004;2023-06-04T02:17:29;8.07;;;6.63;;
62931;SDS011;49037;41.898;25.004;2023-06-04T02:20:02;10.60;;;7.15;;
62931;SDS011;49037;41.898;25.004;2023-06-04T02:22:31;10.25;;;6.78;;
62931;SDS011;49037;41.898;25.004;2023-06-04T02:24:59;10.38;;;7.20;;
62931;SDS011;49037;41.898;25.004;2023-06-04T02:27:25;12.20;;;6.90;;
62931;SDS011;49037;41.898;25.004;2023-06-04T02:29:50;9.52;;;7.57;;
62931;SDS011;49037;41.898;25.004;2023-06-04T02:32:16;9.27;;;6.90;;
62931;SDS011;49037;41.898;25.004;2023-06-04T02:34:45;10.88;;;7.10;;
62931;SDS011;49037;41.898;25.004;2023-06-04T02:37:10;10.52;;;6.75;;
62931;SDS011;49037;41.898;25.004;2023-06-04T02:39:35;12.38;;;7.35;;
62931;SDS011;49037;41.898;25.004;2023-06-04T02:42:04;11.05;;;7.63;;
62931;SDS011;49037;41.898;25.004;2023-06-04T02:44:29;9.77;;;7.65;;
62931;SDS011;49037;41.898;25.004;2023-06-04T02:46:55;9.55;;;6.85;;
62931;SDS011;49037;41.898;25.004;2023-06-04T02:49:21;11.32;;;6.85;;
62931;SDS011;49037;41.898;25.004;2023-06-04T02:51:46;13.10;;;7.22;;
62931;SDS011;49037;41.898;25.004;2023-06-04T02:54:12;9.52;;;7.10;;
62931;SDS011;49037;41.898;25.004;2023-06-04T02:56:39;10.57;;;7.78;;
62931;SDS011;49037;41.898;25.004;2023-06-04T02:59:05;10.13;;;7.28;;
62931;SDS011;49037;41.898;25.004;2023-06-04T03:01:36;11.40;;;8.05;;
62931;SDS011;49037;41.898;25.004;2023-06-04T03:04:06;13.27;;;7.90;;
62931;SDS011;49037;41.898;25.004;2023-06-04T03:06:37;11.27;;;8.20;;
62931;SDS011;49037;41.898;25.004;2023-06-04T03:09:05;10.73;;;8.23;;
62931;SDS011;49037;41.898;25.004;2023-06-04T03:11:33;10.73;;;7.60;;
62931;SDS011;49037;41.898;25.004;2023-06-04T03:17:55;14.50;;;8.00;;
62931;SDS011;49037;41.898;25.004;2023-06-04T03:35:15;9.68;;;7.20;;
62931;SDS011;49037;41.898;25.004;2023-06-04T03:39:34;9.02;;;6.88;;
62931;SDS011;49037;41.898;25.004;2023-06-04T03:45:45;10.50;;;7.47;;
62931;SDS011;49037;41.898;25.004;2023-06-04T03:48:28;9.23;;;7.15;;
62931;SDS011;49037;41.898;25.004;2023-06-04T03:51:30;10.85;;;7.28;;
62931;SDS011;49037;41.898;25.004;2023-06-04T03:54:10;9.88;;;6.45;;
62931;SDS011;49037;41.898;25.004;2023-06-04T03:56:46;9.77;;;7.45;;
62931;SDS011;49037;41.898;25.004;2023-06-04T03:59:20;8.57;;;6.90;;
62931;SDS011;49037;41.898;25.004;2023-06-04T04:02:04;9.27;;;6.70;;
62931;SDS011;49037;41.898;25.004;2023-06-04T04:05:03;8.57;;;6.32;;
62931;SDS011;49037;41.898;25.004;2023-06-04T04:11:21;8.15;;;6.50;;
62931;SDS011;49037;41.898;25.004;2023-06-04T04:13:58;10.35;;;6.45;;
62931;SDS011;49037;41.898;25.004;2023-06-04T04:16:32;11.18;;;6.63;;
62931;SDS011;49037;41.898;25.004;2023-06-04T04:19:15;10.05;;;5.97;;
62931;SDS011;49037;41.898;25.004;2023-06-04T04:21:59;7.40;;;6.15;;
62931;SDS011;49037;41.898;25.004;2023-06-04T04:25:25;8.93;;;6.93;;
62931;SDS011;49037;41.898;25.004;2023-06-04T04:27:53;11.50;;;7.32;;
62931;SDS011;49037;41.898;25.004;2023-06-04T04:30:28;10.95;;;7.25;;
62931;SDS011;49037;41.898;25.004;2023-06-04T04:32:54;10.43;;;7.15;;
62931;SDS011;49037;41.898;25.004;2023-06-04T05:01:54;10.30;;;7.65;;
62931;SDS011;49037;41.898;25.004;2023-06-04T05:04:22;12.63;;;8.13;;
62931;SDS011;49037;41.898;25.004;2023-06-04T05:15:40;11.82;;;8.88;;
62931;SDS011;49037;41.898;25.004;2023-06-04T05:18:34;12.43;;;8.48;;
62931;SDS011;49037;41.898;25.004;2023-06-04T05:21:06;14.82;;;9.30;;
62931;SDS011;49037;41.898;25.004;2023-06-04T05:27:02;12.35;;;8.27;;
62931;SDS011;49037;41.898;25.004;2023-06-04T05:29:50;12.00;;;8.43;;
62931;SDS011;49037;41.898;25.004;2023-06-04T05:32:18;12.30;;;7.75;;
62931;SDS011;49037;41.898;25.004;2023-06-04T05:34:53;10.15;;;7.22;;
62931;SDS011;49037;41.898;25.004;2023-06-04T05:37:30;9.80;;;7.20;;
62931;SDS011;49037;41.898;25.004;2023-06-04T05:40:00;9.07;;;6.93;;
62931;SDS011;49037;41.898;25.004;2023-06-04T05:42:28;9.68;;;7.18;;
62931;SDS011;49037;41.898;25.004;2023-06-04T05:44:56;9.20;;;7.15;;
62931;SDS011;49037;41.898;25.004;2023-06-04T05:47:33;11.07;;;7.35;;
62931;SDS011;49037;41.898;25.004;2023-06-04T05:50:21;10.80;;;7.72;;
62931;SDS011;49037;41.898;25.004;2023-06-04T05:52:57;14.10;;;8.25;;
62931;SDS011;49037;41.898;25.004;2023-06-04T05:55:46;15.93;;;8.30;;
62931;SDS011;49037;41.898;25.004;2023-06-04T05:58:14;9.90;;;7.50;;
62931;SDS011;49037;41.898;25.004;2023-06-04T06:01:04;12.35;;;7.78;;
62931;SDS011;49037;41.898;25.004;2023-06-04T06:03:30;11.55;;;7.38;;
62931;SDS011;49037;41.898;25.004;2023-06-04T06:05:58;9.15;;;6.90;;
62931;SDS011;49037;41.898;25.004;2023-06-04T06:08:26;13.65;;;7.95;;
62931;SDS011;49037;41.898;25.004;2023-06-04T06:11:00;12.50;;;7.47;;
62931;SDS011;49037;41.898;25.004;2023-06-04T06:13:32;13.00;;;7.95;;
62931;SDS011;49037;41.898;25.004;2023-06-04T06:15:58;9.60;;;7.28;;
62931;SDS011;49037;41.898;25.004;2023-06-04T06:18:27;18.85;;;8.13;;
62931;SDS011;49037;41.898;25.004;2023-06-04T06:20:52;11.88;;;7.03;;
62931;SDS011;49037;41.898;25.004;2023-06-04T06:23:18;11.75;;;7.25;;
62931;SDS011;49037;41.898;25.004;2023-06-04T06:25:46;11.40;;;6.97;;
62931;SDS011;49037;41.898;25.004;2023-06-04T06:28:14;15.00;;;8.05;;
62931;SDS011;49037;41.898;25.004;2023-06-04T06:30:42;13.98;;;8.25;;
62931;SDS011;49037;41.898;25.004;2023-06-04T06:33:10;18.05;;;8.35;;
62931;SDS011;49037;41.898;25.004;2023-06-04T06:47:07;11.57;;;7.47;;
62931;SDS011;49037;41.898;25.004;2023-06-04T06:50:13;8.93;;;7.30;;
62931;SDS011;49037;41.898;25.004;2023-06-04T06:53:02;15.00;;;8.30;;
62931;SDS011;49037;41.898;25.004;2023-06-04T06:55:47;10.15;;;7.50;;
62931;SDS011;49037;41.898;25.004;2023-06-04T06:58:37;13.00;;;7.25;;
62931;SDS011;49037;41.898;25.004;2023-06-04T07:01:21;12.10;;;6.93;;
62931;SDS011;49037;41.898;25.004;2023-06-04T07:04:22;9.73;;;7.60;;
62931;SDS011;49037;41.898;25.004;2023-06-04T07:54:38;10.68;;;7.90;;
62931;SDS011;49037;41.898;25.004;2023-06-04T07:57:38;10.27;;;7.32;;
62931;SDS011;49037;41.898;25.004;2023-06-04T08:00:32;12.63;;;7.93;;
62931;SDS011;49037;41.898;25.004;2023-06-04T08:03:09;11.43;;;6.82;;
62931;SDS011;49037;41.898;25.004;2023-06-04T08:25:39;12.30;;;8.50;;
62931;SDS011;49037;41.898;25.004;2023-06-04T08:52:30;16.83;;;10.90;;
62931;SDS011;49037;41.898;25.004;2023-06-04T09:07:18;12.23;;;7.78;;
62931;SDS011;49037;41.898;25.004;2023-06-04T09:09:54;7.47;;;6.20;;
62931;SDS011;49037;41.898;25.004;2023-06-04T09:12:23;11.20;;;6.72;;
62931;SDS011;49037;41.898;25.004;2023-06-04T09:20:25;10.05;;;6.57;;
62931;SDS011;49037;41.898;25.004;2023-06-04T09:23:00;10.98;;;7.32;;
62931;SDS011;49037;41.898;25.004;2023-06-04T09:28:19;11.32;;;6.85;;
62931;SDS011;49037;41.898;25.004;2023-06-04T09:30:58;7.97;;;6.40;;
62931;SDS011;49037;41.898;25.004;2023-06-04T09:50:50;8.32;;;6.35;;
62931;SDS011;49037;41.898;25.004;2023-06-04T09:57:39;6.57;;;5.35;;
62931;SDS011;49037;41.898;25.004;2023-06-04T10:00:09;7.05;;;5.05;;
62931;SDS011;49037;41.898;25.004;2023-06-04T10:05:07;6.65;;;4.50;;
62931;SDS011;49037;41.898;25.004;2023-06-04T10:07:44;6.70;;;4.90;;
62931;SDS011;49037;41.898;25.004;2023-06-04T10:10:16;7.68;;;4.20;;
62931;SDS011;49037;41.898;25.004;2023-06-04T10:15:57;6.68;;;3.72;;
62931;SDS011;49037;41.898;25.004;2023-06-04T10:18:24;4.70;;;3.30;;
62931;SDS011;49037;41.898;25.004;2023-06-04T10:20:55;4.95;;;3.92;;
62931;SDS011;49037;41.898;25.004;2023-06-04T10:23:21;5.15;;;3.78;;
62931;SDS011;49037;41.898;25.004;2023-06-04T10:25:50;5.15;;;4.40;;
62931;SDS011;49037;41.898;25.004;2023-06-04T10:28:17;8.70;;;3.78;;
62931;SDS011;49037;41.898;25.004;2023-06-04T10:33:02;7.43;;;4.22;;
62931;SDS011;49037;41.898;25.004;2023-06-04T10:35:29;5.75;;;3.38;;
62931;SDS011;49037;41.898;25.004;2023-06-04T10:38:09;8.65;;;4.40;;
62931;SDS011;49037;41.898;25.004;2023-06-04T10:40:36;6.82;;;3.67;;
62931;SDS011;49037;41.898;25.004;2023-06-04T10:43:06;5.22;;;3.30;;
62931;SDS011;49037;41.898;25.004;2023-06-04T10:45:33;4.45;;;3.50;;
62931;SDS011;49037;41.898;25.004;2023-06-04T10:48:02;5.75;;;3.42;;
62931;SDS011;49037;41.898;25.004;2023-06-04T10:50:28;7.95;;;3.40;;
62931;SDS011;49037;41.898;25.004;2023-06-04T10:52:55;4.65;;;3.65;;
62931;SDS011;49037;41.898;25.004;2023-06-04T10:55:23;5.03;;;3.33;;
62931;SDS011;49037;41.898;25.004;2023-06-04T11:00:17;8.10;;;5.90;;
62931;SDS011;49037;41.898;25.004;2023-06-04T11:02:53;10.55;;;5.97;;
62931;SDS011;49037;41.898;25.004;2023-06-04T11:05:22;10.32;;;6.30;;
62931;SDS011;49037;41.898;25.004;2023-06-04T11:08:08;11.05;;;7.38;;
62931;SDS011;49037;41.898;25.004;2023-06-04T11:10:42;13.73;;;8.10;;
62931;SDS011;49037;41.898;25.004;2023-06-04T11:13:10;11.52;;;7.15;;
62931;SDS011;49037;41.898;25.004;2023-06-04T11:15:43;10.57;;;7.38;;
62931;SDS011;49037;41.898;25.004;2023-06-04T11:21:00;9.50;;;7.63;;
62931;SDS011;49037;41.898;25.004;2023-06-04T11:23:59;9.30;;;7.28;;
62931;SDS011;49037;41.898;25.004;2023-06-04T11:26:35;10.70;;;7.72;;
62931;SDS011;49037;41.898;25.004;2023-06-04T11:29:02;14.88;;;8.88;;
62931;SDS011;49037;41.898;25.004;2023-06-04T11:31:51;11.02;;;8.45;;
62931;SDS011;49037;41.898;25.004;2023-06-04T11:35:39;11.05;;;8.82;;
62931;SDS011;49037;41.898;25.004;2023-06-04T11:38:12;15.70;;;7.88;;
62931;SDS011;49037;41.898;25.004;2023-06-04T11:40:39;10.70;;;8.18;;
62931;SDS011;49037;41.898;25.004;2023-06-04T11:43:09;11.15;;;8.20;;
62931;SDS011;49037;41.898;25.004;2023-06-04T11:45:35;10.75;;;7.90;;
62931;SDS011;49037;41.898;25.004;2023-06-04T11:48:02;16.77;;;11.60;;
62931;SDS011;49037;41.898;25.004;2023-06-04T11:50:30;13.88;;;10.63;;
62931;SDS011;49037;41.898;25.004;2023-06-04T11:52:56;13.73;;;10.35;;
62931;SDS011;49037;41.898;25.004;2023-06-04T11:55:22;19.05;;;13.07;;
62931;SDS011;49037;41.898;25.004;2023-06-04T11:57:48;17.13;;;11.15;;
62931;SDS011;49037;41.898;25.004;2023-06-04T12:00:15;21.50;;;13.85;;
62931;SDS011;49037;41.898;25.004;2023-06-04T12:02:49;13.07;;;9.48;;
62931;SDS011;49037;41.898;25.004;2023-06-04T12:05:33;14.75;;;10.65;;
62931;SDS011;49037;41.898;25.004;2023-06-04T12:10:36;11.77;;;8.10;;
62931;SDS011;49037;41.898;25.004;2023-06-04T12:13:05;10.40;;;7.60;;
62931;SDS011;49037;41.898;25.004;2023-06-04T12:15:52;10.27;;;8.15;;
62931;SDS011;49037;41.898;25.004;2023-06-04T12:18:24;10.02;;;7.32;;
62931;SDS011;49037;41.898;25.004;2023-06-04T12:20:50;9.13;;;7.57;;
62931;SDS011;49037;41.898;25.004;2023-06-04T12:23:21;8.88;;;6.28;;
62931;SDS011;49037;41.898;25.004;2023-06-04T12:25:49;10.32;;;6.82;;
62931;SDS011;49037;41.898;25.004;2023-06-04T12:28:18;8.30;;;6.50;;
62931;SDS011;49037;41.898;25.004;2023-06-04T12:30:43;12.15;;;8.25;;
62931;SDS011;49037;41.898;25.004;2023-06-04T12:33:10;10.68;;;7.28;;
62931;SDS011;49037;41.898;25.004;2023-06-04T12:39:50;12.63;;;8.30;;
62931;SDS011;49037;41.898;25.004;2023-06-04T12:42:15;11.65;;;8.27;;
62931;SDS011;49037;41.898;25.004;2023-06-04T12:44:44;15.27;;;8.68;;
62931;SDS011;49037;41.898;25.004;2023-06-04T12:47:09;14.32;;;9.25;;
62931;SDS011;49037;41.898;25.004;2023-06-04T12:49:36;11.75;;;8.70;;
62931;SDS011;49037;41.898;25.004;2023-06-04T12:52:04;13.57;;;9.77;;
62931;SDS011;49037;41.898;25.004;2023-06-04T12:54:42;14.13;;;9.65;;
62931;SDS011;49037;41.898;25.004;2023-06-04T12:57:08;13.80;;;9.05;;
62931;SDS011;49037;41.898;25.004;2023-06-04T12:59:33;11.95;;;7.70;;
62931;SDS011;49037;41.898;25.004;2023-06-04T13:01:59;12.90;;;8.63;;
62931;SDS011;49037;41.898;25.004;2023-06-04T13:04:30;11.90;;;8.00;;
62931;SDS011;49037;41.898;25.004;2023-06-04T13:06:56;13.23;;;8.30;;
62931;SDS011;49037;41.898;25.004;2023-06-04T13:09:24;33.50;;;17.05;;
62931;SDS011;49037;41.898;25.004;2023-06-04T13:11:50;24.58;;;12.48;;
62931;SDS011;49037;41.898;25.004;2023-06-04T13:14:16;14.40;;;9.23;;
62931;SDS011;49037;41.898;25.004;2023-06-04T13:16:42;10.20;;;7.70;;
62931;SDS011;49037;41.898;25.004;2023-06-04T13:19:13;10.45;;;6.63;;
62931;SDS011;49037;41.898;25.004;2023-06-04T13:23:57;8.65;;;6.93;;
62931;SDS011;49037;41.898;25.004;2023-06-04T13:26:22;9.38;;;7.07;;
62931;SDS011;49037;41.898;25.004;2023-06-04T13:28:51;9.40;;;6.53;;
62931;SDS011;49037;41.898;25.004;2023-06-04T13:31:17;9.88;;;5.68;;
62931;SDS011;49037;41.898;25.004;2023-06-04T13:35:37;7.20;;;5.45;;
62931;SDS011;49037;41.898;25.004;2023-06-04T13:38:12;8.20;;;5.47;;
62931;SDS011;49037;41.898;25.004;2023-06-04T13:40:37;7.65;;;5.70;;
62931;SDS011;49037;41.898;25.004;2023-06-04T13:43:08;8.85;;;5.45;;
62931;SDS011;49037;41.898;25.004;2023-06-04T13:47:40;6.32;;;5.22;;
62931;SDS011;49037;41.898;25.004;2023-06-04T13:50:21;5.57;;;4.63;;
62931;SDS011;49037;41.898;25.004;2023-06-04T13:52:50;12.07;;;6.40;;
62931;SDS011;49037;41.898;25.004;2023-06-04T13:57:51;6.35;;;4.65;;
62931;SDS011;49037;41.898;25.004;2023-06-04T14:00:47;6.05;;;4.47;;
62931;SDS011;49037;41.898;25.004;2023-06-04T14:05:25;18.77;;;9.23;;
62931;SDS011;49037;41.898;25.004;2023-06-04T14:07:58;5.97;;;4.70;;
62931;SDS011;49037;41.898;25.004;2023-06-04T14:10:46;5.40;;;4.20;;
62931;SDS011;49037;41.898;25.004;2023-06-04T14:13:14;5.18;;;4.53;;
62931;SDS011;49037;41.898;25.004;2023-06-04T14:17:18;6.75;;;4.97;;
62931;SDS011;49037;41.898;25.004;2023-06-04T14:22:30;5.80;;;4.85;;
62931;SDS011;49037;41.898;25.004;2023-06-04T14:25:03;6.03;;;5.03;;
62931;SDS011;49037;41.898;25.004;2023-06-04T14:27:40;8.38;;;5.22;;
62931;SDS011;49037;41.898;25.004;2023-06-04T14:30:11;10.68;;;5.28;;
62931;SDS011;49037;41.898;25.004;2023-06-04T14:32:47;7.45;;;5.20;;
62931;SDS011;49037;41.898;25.004;2023-06-04T14:35:23;9.30;;;6.10;;
62931;SDS011;49037;41.898;25.004;2023-06-04T14:41:07;5.85;;;5.10;;
62931;SDS011;49037;41.898;25.004;2023-06-04T14:55:14;6.90;;;5.40;;
62931;SDS011;49037;41.898;25.004;2023-06-04T14:58:08;12.10;;;6.80;;
62931;SDS011;49037;41.898;25.004;2023-06-04T15:06:05;8.50;;;6.28;;
62931;SDS011;49037;41.898;25.004;2023-06-04T15:08:33;10.98;;;6.38;;
62931;SDS011;49037;41.898;25.004;2023-06-04T15:10:59;8.90;;;5.82;;
62931;SDS011;49037;41.898;25.004;2023-06-04T15:25:07;19.27;;;9.65;;
62931;SDS011;49037;41.898;25.004;2023-06-04T15:27:38;11.50;;;7.13;;
62931;SDS011;49037;41.898;25.004;2023-06-04T15:30:20;7.85;;;5.53;;
62931;SDS011;49037;41.898;25.004;2023-06-04T15:37:09;6.85;;;5.57;;
62931;SDS011;49037;41.898;25.004;2023-06-04T15:53:56;9.20;;;5.95;;
62931;SDS011;49037;41.898;25.004;2023-06-04T15:56:38;8.10;;;5.90;;
62931;SDS011;49037;41.898;25.004;2023-06-04T15:59:13;8.23;;;6.07;;
62931;SDS011;49037;41.898;25.004;2023-06-04T16:04:56;9.32;;;6.07;;
62931;SDS011;49037;41.898;25.004;2023-06-04T16:07:24;7.93;;;6.50;;
62931;SDS011;49037;41.898;25.004;2023-06-04T16:25:15;8.05;;;5.07;;
62931;SDS011;49037;41.898;25.004;2023-06-04T16:27:45;8.15;;;5.10;;
62931;SDS011;49037;41.898;25.004;2023-06-04T16:34:53;10.60;;;6.38;;
62931;SDS011;49037;41.898;25.004;2023-06-04T16:37:22;7.10;;;5.10;;
62931;SDS011;49037;41.898;25.004;2023-06-04T16:39:47;7.30;;;5.60;;
62931;SDS011;49037;41.898;25.004;2023-06-04T16:42:15;9.23;;;6.03;;
62931;SDS011;49037;41.898;25.004;2023-06-04T16:44:43;8.80;;;5.82;;
62931;SDS011;49037;41.898;25.004;2023-06-04T16:47:28;7.78;;;5.43;;
62931;SDS011;49037;41.898;25.004;2023-06-04T16:49:56;8.35;;;5.38;;
62931;SDS011;49037;41.898;25.004;2023-06-04T16:52:33;8.60;;;4.40;;
62931;SDS011;49037;41.898;25.004;2023-06-04T16:55:05;11.73;;;6.75;;
62931;SDS011;49037;41.898;25.004;2023-06-04T16:57:37;7.18;;;5.07;;
62931;SDS011;49037;41.898;25.004;2023-06-04T17:00:03;6.15;;;4.43;;
62931;SDS011;49037;41.898;25.004;2023-06-04T17:02:30;8.07;;;5.07;;
62931;SDS011;49037;41.898;25.004;2023-06-04T17:04:55;6.93;;;5.10;;
62931;SDS011;49037;41.898;25.004;2023-06-04T17:07:22;7.05;;;4.75;;
62931;SDS011;49037;41.898;25.004;2023-06-04T17:09:51;8.43;;;5.68;;
62931;SDS011;49037;41.898;25.004;2023-06-04T17:12:20;9.80;;;5.60;;
62931;SDS011;49037;41.898;25.004;2023-06-04T17:14:48;7.15;;;5.82;;
62931;SDS011;49037;41.898;25.004;2023-06-04T17:17:13;8.63;;;5.82;;
62931;SDS011;49037;41.898;25.004;2023-06-04T17:19:44;8.80;;;5.65;;
62931;SDS011;49037;41.898;25.004;2023-06-04T17:22:20;9.40;;;5.78;;
62931;SDS011;49037;41.898;25.004;2023-06-04T17:30:05;8.02;;;5.85;;
62931;SDS011;49037;41.898;25.004;2023-06-04T17:32:34;7.85;;;6.00;;
62931;SDS011;49037;41.898;25.004;2023-06-04T17:35:05;8.40;;;6.32;;
62931;SDS011;49037;41.898;25.004;2023-06-04T17:37:44;7.85;;;5.88;;
62931;SDS011;49037;41.898;25.004;2023-06-04T17:59:37;10.30;;;6.85;;
62931;SDS011;49037;41.898;25.004;2023-06-04T18:02:03;10.38;;;6.88;;
62931;SDS011;49037;41.898;25.004;2023-06-04T18:07:52;9.80;;;7.60;;
62931;SDS011;49037;41.898;25.004;2023-06-04T18:14:07;9.85;;;6.45;;
62931;SDS011;49037;41.898;25.004;2023-06-04T18:16:32;10.15;;;6.55;;
62931;SDS011;49037;41.898;25.004;2023-06-04T18:19:04;9.02;;;6.03;;
62931;SDS011;49037;41.898;25.004;2023-06-04T18:21:34;10.40;;;6.60;;
62931;SDS011;49037;41.898;25.004;2023-06-04T18:23:59;10.73;;;6.60;;
62931;SDS011;49037;41.898;25.004;2023-06-04T18:26:25;9.95;;;6.93;;
62931;SDS011;49037;41.898;25.004;2023-06-04T18:28:53;10.13;;;6.10;;
62931;SDS011;49037;41.898;25.004;2023-06-04T18:31:19;10.25;;;6.47;;
62931;SDS011;49037;41.898;25.004;2023-06-04T18:33:51;8.23;;;6.18;;
62931;SDS011;49037;41.898;25.004;2023-06-04T18:36:25;8.15;;;6.43;;
62931;SDS011;49037;41.898;25.004;2023-06-04T18:38:56;9.85;;;6.45;;
62931;SDS011;49037;41.898;25.004;2023-06-04T18:41:22;10.82;;;6.43;;
62931;SDS011;49037;41.898;25.004;2023-06-04T18:43:48;11.07;;;6.50;;
62931;SDS011;49037;41.898;25.004;2023-06-04T18:46:14;12.68;;;6.95;;
62931;SDS011;49037;41.898;25.004;2023-06-04T18:48:40;10.43;;;6.18;;
62931;SDS011;49037;41.898;25.004;2023-06-04T18:51:05;9.50;;;6.70;;
62931;SDS011;49037;41.898;25.004;2023-06-04T18:53:31;11.30;;;6.10;;
62931;SDS011;49037;41.898;25.004;2023-06-04T18:55:56;9.95;;;6.35;;
62931;SDS011;49037;41.898;25.004;2023-06-04T18:58:25;10.43;;;6.82;;
62931;SDS011;49037;41.898;25.004;2023-06-04T19:00:50;9.40;;;6.80;;
62931;SDS011;49037;41.898;25.004;2023-06-04T19:03:19;9.85;;;6.25;;
62931;SDS011;49037;41.898;25.004;2023-06-04T19:05:47;10.13;;;7.10;;
62931;SDS011;49037;41.898;25.004;2023-06-04T19:08:16;10.38;;;6.68;;
62931;SDS011;49037;41.898;25.004;2023-06-04T19:10:42;9.30;;;6.65;;
62931;SDS011;49037;41.898;25.004;2023-06-04T19:13:10;9.77;;;7.20;;
62931;SDS011;49037;41.898;25.004;2023-06-04T19:15:36;9.60;;;6.80;;
62931;SDS011;49037;41.898;25.004;2023-06-04T19:18:02;8.55;;;6.07;;
62931;SDS011;49037;41.898;25.004;2023-06-04T19:20:30;10.75;;;6.53;;
62931;SDS011;49037;41.898;25.004;2023-06-04T19:22:55;9.93;;;6.53;;
62931;SDS011;49037;41.898;25.004;2023-06-04T19:25:21;9.10;;;5.97;;
62931;SDS011;49037;41.898;25.004;2023-06-04T19:27:48;8.52;;;5.93;;
62931;SDS011;49037;41.898;25.004;2023-06-04T19:30:18;10.20;;;7.28;;
62931;SDS011;49037;41.898;25.004;2023-06-04T19:32:50;9.05;;;6.35;;
62931;SDS011;49037;41.898;25.004;2023-06-04T19:35:20;12.73;;;7.00;;
62931;SDS011;49037;41.898;25.004;2023-06-04T19:37:46;11.75;;;5.82;;
62931;SDS011;49037;41.898;25.004;2023-06-04T19:40:11;9.52;;;7.07;;
62931;SDS011;49037;41.898;25.004;2023-06-04T19:42:43;9.57;;;6.93;;
62931;SDS011;49037;41.898;25.004;2023-06-04T19:45:11;8.25;;;6.85;;
62931;SDS011;49037;41.898;25.004;2023-06-04T19:47:37;10.38;;;6.57;;
62931;SDS011;49037;41.898;25.004;2023-06-04T19:50:03;8.55;;;6.45;;
62931;SDS011;49037;41.898;25.004;2023-06-04T19:52:29;10.38;;;6.28;;
62931;SDS011;49037;41.898;25.004;2023-06-04T19:54:59;12.10;;;6.22;;
62931;SDS011;49037;41.898;25.004;2023-06-04T19:57:28;12.98;;;6.53;;
62931;SDS011;49037;41.898;25.004;2023-06-04T19:59:53;11.65;;;6.88;;
62931;SDS011;49037;41.898;25.004;2023-06-04T20:02:19;10.80;;;6.47;;
62931;SDS011;49037;41.898;25.004;2023-06-04T20:04:56;10.13;;;6.30;;
62931;SDS011;49037;41.898;25.004;2023-06-04T20:07:25;8.15;;;5.60;;
62931;SDS011;49037;41.898;25.004;2023-06-04T20:09:54;12.27;;;6.90;;
62931;SDS011;49037;41.898;25.004;2023-06-04T20:12:20;10.20;;;6.32;;
62931;SDS011;49037;41.898;25.004;2023-06-04T20:14:47;9.57;;;6.60;;
62931;SDS011;49037;41.898;25.004;2023-06-04T20:17:13;11.95;;;6.72;;
62931;SDS011;49037;41.898;25.004;2023-06-04T20:19:39;9.38;;;6.90;;
62931;SDS011;49037;41.898;25.004;2023-06-04T20:22:04;10.70;;;6.72;;
62931;SDS011;49037;41.898;25.004;2023-06-04T20:24:30;10.85;;;6.57;;
62931;SDS011;49037;41.898;25.004;2023-06-04T20:26:56;12.93;;;6.68;;
62931;SDS011;49037;41.898;25.004;2023-06-04T20:29:22;10.55;;;6.88;;
62931;SDS011;49037;41.898;25.004;2023-06-04T20:31:48;11.68;;;7.20;;
62931;SDS011;49037;41.898;25.004;2023-06-04T20:34:14;9.93;;;6.55;;
62931;SDS011;49037;41.898;25.004;2023-06-04T20:36:39;10.00;;;6.82;;
62931;SDS011;49037;41.898;25.004;2023-06-04T20:39:05;9.85;;;6.63;;
62931;SDS011;49037;41.898;25.004;2023-06-04T20:41:30;9.20;;;6.43;;
62931;SDS011;49037;41.898;25.004;2023-06-04T20:43:59;9.88;;;6.15;;
62931;SDS011;49037;41.898;25.004;2023-06-04T20:46:26;10.30;;;7.00;;
62931;SDS011;49037;41.898;25.004;2023-06-04T20:48:52;11.80;;;7.03;;
62931;SDS011;49037;41.898;25.004;2023-06-04T20:51:17;9.75;;;5.97;;
62931;SDS011;49037;41.898;25.004;2023-06-04T20:53:43;8.75;;;6.15;;
62931;SDS011;49037;41.898;25.004;2023-06-04T20:56:10;10.15;;;6.55;;
62931;SDS011;49037;41.898;25.004;2023-06-04T20:58:36;11.98;;;6.65;;
62931;SDS011;49037;41.898;25.004;2023-06-04T21:01:04;12.52;;;7.75;;
62931;SDS011;49037;41.898;25.004;2023-06-04T21:03:29;12.77;;;7.43;;
62931;SDS011;49037;41.898;25.004;2023-06-04T21:05:55;11.13;;;6.97;;
62931;SDS011;49037;41.898;25.004;2023-06-04T21:08:24;10.70;;;6.63;;
62931;SDS011;49037;41.898;25.004;2023-06-04T21:10:50;14.40;;;7.10;;
62931;SDS011;49037;41.898;25.004;2023-06-04T21:13:16;11.70;;;7.28;;
62931;SDS011;49037;41.898;25.004;2023-06-04T21:15:42;13.10;;;7.00;;
62931;SDS011;49037;41.898;25.004;2023-06-04T21:18:07;11.07;;;7.10;;
62931;SDS011;49037;41.898;25.004;2023-06-04T21:20:33;10.57;;;7.28;;
62931;SDS011;49037;41.898;25.004;2023-06-04T21:22:59;10.73;;;7.32;;
62931;SDS011;49037;41.898;25.004;2023-06-04T21:25:24;9.60;;;6.70;;
62931;SDS011;49037;41.898;25.004;2023-06-04T21:27:50;10.52;;;6.60;;
62931;SDS011;49037;41.898;25.004;2023-06-04T21:30:18;13.27;;;7.47;;
62931;SDS011;49037;41.898;25.004;2023-06-04T21:32:43;8.82;;;6.85;;
62931;SDS011;49037;41.898;25.004;2023-06-04T21:35:29;10.23;;;6.88;;
62931;SDS011;49037;41.898;25.004;2023-06-04T21:37:54;11.85;;;6.85;;
62931;SDS011;49037;41.898;25.004;2023-06-04T21:40:20;14.68;;;7.22;;
62931;SDS011;49037;41.898;25.004;2023-06-04T21:42:45;11.05;;;7.07;;
62931;SDS011;49037;41.898;25.004;2023-06-04T21:45:11;11.45;;;7.30;;
62931;SDS011;49037;41.898;25.004;2023-06-04T21:47:36;10.75;;;7.28;;